Time;durP1;ratioP1;P1;durP2;ratioP2;P2;SDS_P1;SDS_P2;PMS_P1;PMS_P2;Temp;Humidity;BMP_temperature;BMP_pressure;BME280_temperature;BME280_humidity;BME280_pressure;Samples;Min_cycle;Max_cycle;Signal;HPM_P1;HPM_P2
2023/07/26 00:00:35;;;;;;;5.45;3.60;;;21.30;86.20;;;;;;4940412;29;20027;-79
2023/07/26 00:03:00;;;;;;;4.63;3.53;;;21.20;86.00;;;;;;4925633;29;20028;-78
2023/07/26 00:05:26;;;;;;;4.40;3.00;;;21.20;86.00;;;;;;4944330;29;20083;-79
2023/07/26 00:07:52;;;;;;;6.05;3.45;;;21.30;86.20;;;;;;4941297;29;20031;-79
2023/07/26 00:10:18;;;;;;;5.05;2.60;;;21.30;86.30;;;;;;4941935;29;20071;-79
2023/07/26 00:12:44;;;;;;;4.03;3.10;;;21.20;86.30;;;;;;4941006;29;20028;-79
2023/07/26 00:15:10;;;;;;;4.72;4.05;;;21.10;87.20;;;;;;4942230;29;20078;-78
2023/07/26 00:17:35;;;;;;;8.40;3.93;;;21.10;87.70;;;;;;4942184;29;20052;-79
2023/07/26 00:20:03;;;;;;;6.13;3.90;;;21.00;87.90;;;;;;4942551;29;20275;-78
2023/07/26 00:22:29;;;;;;;5.05;3.10;;;21.10;88.70;;;;;;4942512;29;20483;-79
2023/07/26 00:24:55;;;;;;;9.20;3.60;;;21.10;88.50;;;;;;4942228;29;20295;-80
2023/07/26 00:27:21;;;;;;;4.47;3.30;;;21.10;88.10;;;;;;4942332;29;20031;-78
2023/07/26 00:29:46;;;;;;;3.87;3.23;;;21.10;88.50;;;;;;4925357;29;20043;-78
2023/07/26 00:32:12;;;;;;;6.32;3.30;;;21.20;88.30;;;;;;4940561;29;20036;-80
2023/07/26 00:34:38;;;;;;;6.23;3.03;;;21.20;89.00;;;;;;4940170;29;20059;-79
2023/07/26 00:37:05;;;;;;;4.68;3.50;;;21.30;88.90;;;;;;4939833;29;20508;-79
2023/07/26 00:39:31;;;;;;;6.35;3.67;;;21.30;88.40;;;;;;4940098;29;20050;-79
2023/07/26 00:41:57;;;;;;;7.97;3.03;;;21.30;88.70;;;;;;4939928;29;20390;-79
2023/07/26 00:44:28;;;;;;;3.47;3.17;;;21.30;89.10;;;;;;4940516;29;20511;-79
2023/07/26 00:46:54;;;;;;;4.65;3.13;;;21.40;89.80;;;;;;4925801;29;20027;-79
2023/07/26 00:49:20;;;;;;;6.38;2.58;;;21.30;89.50;;;;;;4943291;29;20031;-79
2023/07/26 00:51:46;;;;;;;6.83;2.70;;;21.30;88.50;;;;;;4940767;29;20039;-79
2023/07/26 00:54:13;;;;;;;4.43;2.40;;;21.00;86.00;;;;;;4937888;29;20028;-79
2023/07/26 00:56:39;;;;;;;4.72;2.63;;;20.90;87.10;;;;;;4923923;29;20044;-79
2023/07/26 00:59:05;;;;;;;6.70;2.60;;;21.00;87.40;;;;;;4922734;29;20028;-78
2023/07/26 01:01:31;;;;;;;3.83;2.63;;;21.10;87.90;;;;;;4923907;29;20048;-78
2023/07/26 01:03:57;;;;;;;4.93;2.83;;;21.10;88.70;;;;;;4923786;29;20020;-78
2023/07/26 01:06:40;;;;;;;3.23;2.27;;;21.20;90.00;;;;;;4924780;29;20813;-78
2023/07/26 01:09:07;;;;;;;5.97;3.20;;;21.20;89.70;;;;;;4940719;29;20087;-78
2023/07/26 01:11:40;;;;;;;4.00;2.80;;;21.20;90.00;;;;;;4941986;29;20039;-79
2023/07/26 01:14:46;;;;;;;3.75;2.40;;;21.20;90.00;;;;;;4942059;29;20055;-78
2023/07/26 01:17:11;;;;;;;3.63;2.80;;;21.30;89.90;;;;;;4984203;23;20047;-83
2023/07/26 01:19:37;;;;;;;2.42;2.15;;;21.20;90.00;;;;;;4938615;29;20026;-83
2023/07/26 01:22:04;;;;;;;3.00;2.50;;;21.20;88.30;;;;;;4956124;28;20019;-83
2023/07/26 01:24:29;;;;;;;4.00;2.53;;;21.20;89.50;;;;;;4954949;29;20138;-83
2023/07/26 01:26:55;;;;;;;4.93;2.42;;;21.30;89.20;;;;;;4954765;29;20484;-83
2023/07/26 01:29:21;;;;;;;6.10;2.03;;;21.30;88.90;;;;;;4953461;29;20217;-84
2023/07/26 01:31:48;;;;;;;3.80;2.13;;;21.30;88.60;;;;;;4953853;29;20082;-83
2023/07/26 01:34:14;;;;;;;4.35;1.98;;;21.30;88.60;;;;;;4936162;29;20498;-83
2023/07/26 01:36:41;;;;;;;3.30;1.70;;;21.30;88.60;;;;;;4956725;29;20036;-82
2023/07/26 01:39:08;;;;;;;3.33;1.80;;;21.30;88.10;;;;;;4954862;29;20054;-84
2023/07/26 01:41:35;;;;;;;4.10;1.73;;;21.30;87.30;;;;;;4954304;29;20089;-82
2023/07/26 01:44:01;;;;;;;3.75;1.55;;;21.30;86.40;;;;;;4953736;29;20082;-83
2023/07/26 01:46:29;;;;;;;2.38;1.73;;;21.40;86.40;;;;;;4939068;29;20125;-83
2023/07/26 01:48:57;;;;;;;4.40;1.75;;;21.40;85.60;;;;;;4938233;29;20036;-83
2023/07/26 01:51:23;;;;;;;2.22;1.58;;;21.30;85.00;;;;;;4953193;29;20050;-82
2023/07/26 01:53:49;;;;;;;2.73;1.80;;;21.20;84.20;;;;;;4940207;29;20038;-82
2023/07/26 01:56:16;;;;;;;2.92;1.40;;;21.20;84.20;;;;;;4957064;29;20147;-83
2023/07/26 01:58:41;;;;;;;4.93;2.28;;;21.00;85.00;;;;;;4957098;29;20514;-82
2023/07/26 02:01:07;;;;;;;4.13;2.45;;;21.00;86.00;;;;;;4937838;29;20027;-82
2023/07/26 02:03:33;;;;;;;3.47;2.20;;;21.00;86.70;;;;;;4955792;29;20090;-82
2023/07/26 02:05:59;;;;;;;4.80;2.13;;;21.00;87.20;;;;;;4937870;29;20506;-83
2023/07/26 02:08:25;;;;;;;4.32;2.25;;;21.00;86.90;;;;;;4921885;29;20048;-82
2023/07/26 02:10:51;;;;;;;4.05;2.70;;;21.00;86.50;;;;;;4921209;29;20027;-82
2023/07/26 02:13:17;;;;;;;7.97;2.80;;;20.90;85.80;;;;;;4944293;29;20038;-82
2023/07/26 02:15:44;;;;;;;4.93;2.60;;;20.90;86.40;;;;;;4940175;29;20367;-83
2023/07/26 02:18:10;;;;;;;;;;;20.90;86.40;;;;;;4941251;29;20300;-82
2023/07/26 02:20:36;;;;;;;4.63;3.55;;;20.80;87.10;;;;;;4940026;29;19921;-81
2023/07/26 02:23:02;;;;;;;4.80;3.33;;;20.80;86.60;;;;;;4954839;29;20090;-82
2023/07/26 02:25:28;;;;;;;3.05;2.75;;;20.70;87.10;;;;;;4954163;28;20027;-82
2023/07/26 02:27:57;;;;;;;5.32;3.15;;;20.70;87.10;;;;;;4956040;29;20035;-84
2023/07/26 02:30:23;;;;;;;4.10;2.83;;;20.60;86.20;;;;;;4953369;29;20401;-84
2023/07/26 02:32:49;;;;;;;4.22;2.50;;;20.50;86.30;;;;;;4954261;29;20098;-81
2023/07/26 02:35:15;;;;;;;5.32;1.92;;;20.50;86.40;;;;;;4940210;29;20118;-82
2023/07/26 02:37:41;;;;;;;5.60;3.17;;;20.40;85.90;;;;;;4953181;29;20055;-82
2023/07/26 02:40:07;;;;;;;3.53;2.28;;;20.40;85.60;;;;;;4945831;29;20015;-81
2023/07/26 02:42:33;;;;;;;5.77;1.60;;;20.50;85.40;;;;;;4958020;29;20031;-81
2023/07/26 02:44:59;;;;;;;3.08;1.65;;;20.60;82.80;;;;;;4958297;29;20078;-82
2023/07/26 02:47:24;;;;;;;7.28;1.75;;;20.60;82.80;;;;;;4957939;29;20225;-82
2023/07/26 02:49:50;;;;;;;1.30;1.20;;;20.60;82.30;;;;;;4940384;29;20118;-82
2023/07/26 02:52:16;;;;;;;3.88;1.52;;;20.60;82.80;;;;;;4956600;29;20070;-82
2023/07/26 02:54:42;;;;;;;2.25;1.15;;;20.70;83.50;;;;;;4938337;29;20039;-82
2023/07/26 02:57:08;;;;;;;1.80;1.27;;;20.70;81.10;;;;;;4958863;29;20054;-82
2023/07/26 02:59:34;;;;;;;3.38;1.40;;;20.70;81.50;;;;;;4957173;29;20063;-81
2023/07/26 03:01:59;;;;;;;5.20;2.67;;;20.70;81.30;;;;;;4957440;29;20042;-82
2023/07/26 03:04:25;;;;;;;3.30;1.70;;;20.70;81.30;;;;;;4939595;29;20032;-82
2023/07/26 03:06:51;;;;;;;2.67;1.77;;;20.70;82.20;;;;;;4941940;29;20031;-82
2023/07/26 03:09:17;;;;;;;1.63;1.53;;;20.70;83.30;;;;;;4941955;29;20035;-82
2023/07/26 03:11:44;;;;;;;2.67;1.52;;;20.60;83.20;;;;;;4942623;29;20054;-81
2023/07/26 03:14:10;;;;;;;7.53;2.17;;;20.60;82.70;;;;;;4939348;29;20490;-81
2023/07/26 03:16:36;;;;;;;5.50;2.20;;;20.50;82.20;;;;;;4955394;29;20036;-81
2023/07/26 03:19:02;;;;;;;2.60;1.85;;;20.20;82.90;;;;;;4931780;29;20042;-82
2023/07/26 03:21:27;;;;;;;3.58;2.05;;;20.20;84.20;;;;;;4938024;29;20046;-82
2023/07/26 03:23:53;;;;;;;4.47;2.55;;;20.20;84.70;;;;;;4953285;29;20177;-83
2023/07/26 03:26:19;;;;;;;5.20;2.28;;;20.30;84.80;;;;;;4939259;29;20034;-83
2023/07/26 03:28:45;;;;;;;2.90;2.08;;;20.30;85.50;;;;;;4940588;29;20490;-83
2023/07/26 03:31:11;;;;;;;6.15;2.75;;;20.30;85.50;;;;;;4955160;29;20035;-82
2023/07/26 03:33:36;;;;;;;4.85;2.70;;;20.30;85.30;;;;;;4929254;29;20063;-82
2023/07/26 03:36:03;;;;;;;5.35;2.55;;;20.30;85.70;;;;;;4940913;29;20070;-81
2023/07/26 03:38:28;;;;;;;3.33;2.63;;;20.30;86.70;;;;;;4942966;29;20027;-82
2023/07/26 03:40:56;;;;;;;3.90;2.55;;;20.30;86.20;;;;;;4955143;29;20098;-81
2023/07/26 03:43:22;;;;;;;6.25;2.92;;;20.30;86.60;;;;;;4939087;29;20032;-82
2023/07/26 03:45:47;;;;;;;4.65;3.15;;;20.20;87.10;;;;;;4944429;29;20115;-83
2023/07/26 03:48:13;;;;;;;7.25;3.65;;;20.20;87.10;;;;;;4953913;29;20032;-82
2023/07/26 03:50:40;;;;;;;4.93;2.97;;;20.20;88.10;;;;;;4954811;29;20090;-81
2023/07/26 03:53:06;;;;;;;8.52;3.55;;;20.20;87.90;;;;;;4952920;29;20122;-81
2023/07/26 03:55:32;;;;;;;6.57;3.08;;;20.20;88.20;;;;;;4938989;29;20070;-82
2023/07/26 03:57:58;;;;;;;4.07;3.17;;;20.20;88.20;;;;;;4941414;29;20036;-81
2023/07/26 04:00:24;;;;;;;13.77;4.03;;;20.20;88.80;;;;;;4924481;29;20071;-82
2023/07/26 04:02:51;;;;;;;;;;;20.20;89.20;;;;;;4940804;29;20047;-81
2023/07/26 04:05:18;;;;;;;3.75;3.13;;;20.20;89.80;;;;;;4941501;29;20396;-81
2023/07/26 04:07:44;;;;;;;;;;;20.10;89.30;;;;;;4941722;29;20095;-81
2023/07/26 04:10:10;;;;;;;3.25;2.65;;;20.10;89.90;;;;;;4942788;29;20383;-81
2023/07/26 04:12:36;;;;;;;5.75;3.17;;;20.10;89.80;;;;;;4941232;29;20506;-81
2023/07/26 04:15:02;;;;;;;8.95;4.93;;;20.10;89.40;;;;;;4945009;29;20079;-81
2023/07/26 04:17:28;;;;;;;10.32;4.97;;;20.10;89.00;;;;;;4942167;29;20046;-82
2023/07/26 04:19:54;;;;;;;7.90;4.10;;;20.00;89.10;;;;;;4939497;29;20114;-81
2023/07/26 04:22:19;;;;;;;7.47;4.00;;;20.00;89.70;;;;;;4938420;29;20059;-82
2023/07/26 04:24:46;;;;;;;6.03;4.13;;;20.00;90.00;;;;;;4939197;29;20509;-82
2023/07/26 04:27:11;;;;;;;6.78;4.55;;;20.00;90.30;;;;;;4940856;29;20067;-83
2023/07/26 04:29:39;;;;;;;6.78;4.80;;;20.10;90.30;;;;;;4938635;29;20031;-82
2023/07/26 04:32:05;;;;;;;6.43;4.85;;;20.10;90.30;;;;;;4940565;29;20031;-82
2023/07/26 04:34:31;;;;;;;7.68;5.13;;;20.10;90.20;;;;;;4939347;29;20046;-82
2023/07/26 04:36:56;;;;;;;9.25;6.57;;;20.10;90.00;;;;;;4938670;29;20410;-82
2023/07/26 04:39:22;;;;;;;26.70;17.13;;;20.10;89.70;;;;;;4940589;29;20031;-82
2023/07/26 04:41:48;;;;;;;37.38;22.67;;;20.10;89.30;;;;;;4940707;29;20107;-81
2023/07/26 04:44:14;;;;;;;28.42;18.40;;;19.90;89.60;;;;;;4923598;29;20052;-81
2023/07/26 04:46:40;;;;;;;16.15;10.15;;;19.70;90.10;;;;;;4940037;29;20128;-82
2023/07/26 04:49:05;;;;;;;9.73;6.47;;;19.70;90.30;;;;;;4944830;29;20043;-82
2023/07/26 04:51:31;;;;;;;6.13;4.45;;;19.80;90.40;;;;;;4927694;29;20035;-81
2023/07/26 04:53:57;;;;;;;5.93;4.75;;;19.80;90.60;;;;;;4944629;29;20036;-81
2023/07/26 04:56:25;;;;;;;5.43;4.57;;;19.70;90.50;;;;;;4943707;29;20059;-82
2023/07/26 04:58:52;;;;;;;7.82;4.43;;;19.80;90.60;;;;;;4943932;29;20035;-82
2023/07/26 05:01:17;;;;;;;6.70;4.30;;;19.80;90.70;;;;;;4926673;29;20032;-81
2023/07/26 05:03:43;;;;;;;7.05;4.57;;;19.90;90.60;;;;;;4943686;29;20028;-81
2023/07/26 05:06:12;;;;;;;5.72;3.55;;;19.90;90.50;;;;;;4944325;29;20055;-82
2023/07/26 05:08:38;;;;;;;6.15;3.75;;;20.00;90.40;;;;;;4927743;29;20502;-81
2023/07/26 05:11:05;;;;;;;9.73;5.80;;;20.10;90.00;;;;;;4927376;29;20034;-82
2023/07/26 05:13:31;;;;;;;6.03;5.43;;;20.10;90.20;;;;;;4926816;29;20039;-82
2023/07/26 05:15:57;;;;;;;7.18;5.15;;;20.20;90.20;;;;;;4942616;29;20036;-82
2023/07/26 05:18:23;;;;;;;7.47;5.53;;;20.20;90.00;;;;;;4943589;29;20032;-82
2023/07/26 05:20:52;;;;;;;5.15;4.25;;;20.30;90.20;;;;;;4941992;29;20383;-82
2023/07/26 05:23:19;;;;;;;4.35;1.77;;;20.40;90.30;;;;;;4925701;29;20031;-82
2023/07/26 05:25:44;;;;;;;3.30;2.03;;;20.50;88.60;;;;;;4942634;29;20027;-82
2023/07/26 05:28:11;;;;;;;3.75;1.85;;;20.50;87.10;;;;;;4944110;29;20032;-82
2023/07/26 05:30:40;;;;;;;2.50;1.53;;;20.60;86.00;;;;;;4925731;29;20498;-82
2023/07/26 05:33:08;;;;;;;4.15;1.67;;;20.70;85.20;;;;;;4943345;29;20039;-82
2023/07/26 05:35:34;;;;;;;2.15;1.50;;;20.80;85.10;;;;;;4943269;29;20482;-82
2023/07/26 05:38:00;;;;;;;4.50;1.03;;;20.90;84.50;;;;;;4943996;29;20034;-82
2023/07/26 05:40:26;;;;;;;2.67;1.63;;;20.90;85.60;;;;;;4942202;29;20403;-82
2023/07/26 05:42:51;;;;;;;2.00;1.23;;;21.00;85.60;;;;;;4941417;29;20278;-83
2023/07/26 05:45:17;;;;;;;1.52;1.00;;;21.00;85.00;;;;;;4937261;29;20028;-83
2023/07/26 05:47:43;;;;;;;2.95;1.10;;;21.10;85.20;;;;;;4921908;29;20471;-83
2023/07/26 05:50:12;;;;;;;2.80;1.10;;;21.10;84.50;;;;;;4939752;29;20039;-83
2023/07/26 05:52:39;;;;;;;1.27;1.10;;;21.10;84.10;;;;;;4945023;29;20063;-85
2023/07/26 05:55:05;;;;;;;3.17;1.60;;;21.20;84.70;;;;;;4923212;29;20079;-85
2023/07/26 05:57:31;;;;;;;2.80;1.30;;;21.30;84.90;;;;;;4937012;29;20084;-85
2023/07/26 05:59:56;;;;;;;4.10;1.33;;;21.30;84.60;;;;;;4934947;29;20498;-83
2023/07/26 06:02:22;;;;;;;3.55;1.00;;;21.40;84.10;;;;;;4935529;29;20459;-84
2023/07/26 06:04:48;;;;;;;4.05;1.30;;;21.50;83.90;;;;;;4929011;29;20034;-83
2023/07/26 06:07:15;;;;;;;1.27;1.00;;;21.40;83.50;;;;;;4946784;29;20042;-84
2023/07/26 06:09:41;;;;;;;1.15;1.05;;;21.50;84.70;;;;;;4935342;29;20059;-84
2023/07/26 06:12:07;;;;;;;3.47;1.10;;;21.50;84.70;;;;;;4936631;29;20040;-83
2023/07/26 06:14:33;;;;;;;2.58;1.10;;;21.50;85.30;;;;;;4941950;29;20035;-83
2023/07/26 06:16:59;;;;;;;3.70;1.52;;;21.50;84.20;;;;;;4958111;29;20035;-82
2023/07/26 06:19:25;;;;;;;1.73;1.27;;;21.60;83.50;;;;;;4954046;28;20049;-82
2023/07/26 06:21:55;;;;;;;3.60;1.80;;;21.70;83.00;;;;;;4928820;29;20522;-83
2023/07/26 06:24:24;;;;;;;4.07;1.27;;;21.80;83.10;;;;;;4957798;29;20063;-83
2023/07/26 06:26:54;;;;;;;3.70;1.25;;;21.80;82.60;;;;;;4939783;29;20036;-83
2023/07/26 06:29:20;;;;;;;1.77;1.50;;;21.80;83.40;;;;;;4938931;29;20032;-84
2023/07/26 06:31:47;;;;;;;3.50;1.30;;;21.90;83.80;;;;;;4940807;29;20507;-83
2023/07/26 06:34:13;;;;;;;4.45;1.52;;;22.00;84.50;;;;;;4940736;29;20046;-83
2023/07/26 06:36:39;;;;;;;2.92;1.60;;;22.00;83.70;;;;;;4952597;29;20027;-83
2023/07/26 06:39:05;;;;;;;2.90;1.40;;;22.00;83.00;;;;;;4955033;29;20446;-89
2023/07/26 06:41:31;;;;;;;3.87;1.40;;;22.10;80.80;;;;;;4955107;29;20035;-85
2023/07/26 06:43:56;;;;;;;2.20;1.57;;;22.10;80.80;;;;;;4953434;29;20079;-85
2023/07/26 06:46:22;;;;;;;1.60;1.10;;;22.10;79.70;;;;;;4953412;29;20406;-85
2023/07/26 06:48:48;;;;;;;4.23;1.23;;;22.20;79.70;;;;;;4953348;29;20031;-85
2023/07/26 06:51:14;;;;;;;1.92;1.25;;;22.20;79.60;;;;;;4936285;29;20031;-84
2023/07/26 06:53:40;;;;;;;0.93;0.87;;;22.30;80.00;;;;;;4934562;29;20035;-84
2023/07/26 06:56:05;;;;;;;1.43;0.90;;;22.40;79.20;;;;;;4918787;29;20598;-86
2023/07/26 06:58:31;;;;;;;2.10;0.80;;;22.40;78.50;;;;;;4936213;29;20028;-83
2023/07/26 07:00:58;;;;;;;4.43;0.80;;;22.40;77.50;;;;;;4936038;29;20111;-84
2023/07/26 07:03:24;;;;;;;1.73;1.00;;;22.50;76.90;;;;;;4950226;29;20038;-87
2023/07/26 07:05:49;;;;;;;8.57;1.30;;;22.50;77.20;;;;;;4920148;29;20031;-84
2023/07/26 07:08:15;;;;;;;2.13;0.80;;;22.50;76.20;;;;;;4937964;29;20126;-83
2023/07/26 07:10:41;;;;;;;1.40;0.80;;;22.60;75.40;;;;;;4951059;28;20086;-85
2023/07/26 07:13:07;;;;;;;2.08;0.98;;;22.60;75.90;;;;;;4941204;29;20039;-85
2023/07/26 07:15:33;;;;;;;2.37;1.03;;;22.60;75.30;;;;;;4955090;29;20040;-84
2023/07/26 07:17:58;;;;;;;3.27;1.33;;;22.60;74.90;;;;;;4956535;29;20031;-83
2023/07/26 07:20:24;;;;;;;4.00;0.97;;;22.70;75.90;;;;;;4954792;28;20011;-82
2023/07/26 07:22:54;;;;;;;1.43;0.93;;;22.70;74.60;;;;;;4940289;29;20038;-82
2023/07/26 10:29:44;;;;;;;2.00;1.73;;;25.90;55.90;;;;;;5362772;23;20139;-86
2023/07/26 10:32:11;;;;;;;4.38;1.10;;;25.90;57.40;;;;;;4956435;29;20086;-86
2023/07/26 10:34:36;;;;;;;2.58;1.23;;;25.90;57.30;;;;;;4956104;29;20019;-86
2023/07/26 10:37:18;;;;;;;5.30;1.13;;;26.00;57.70;;;;;;4938593;29;20456;-86
2023/07/26 10:39:44;;;;;;;5.88;1.88;;;26.20;55.60;;;;;;4941103;29;20071;-87
2023/07/26 10:42:29;;;;;;;2.50;1.88;;;26.30;55.20;;;;;;4953673;29;20362;-87
2023/07/26 10:44:59;;;;;;;4.25;1.50;;;26.30;55.60;;;;;;4953777;28;20031;-86
2023/07/26 10:47:25;;;;;;;4.78;1.77;;;26.30;55.70;;;;;;4951603;29;20090;-85
2023/07/26 10:49:54;;;;;;;2.83;1.52;;;26.40;57.00;;;;;;4944476;29;20046;-86
2023/07/26 10:52:20;;;;;;;2.75;1.15;;;26.50;56.10;;;;;;4955188;29;20130;-86
2023/07/26 10:54:49;;;;;;;4.47;1.52;;;26.50;55.50;;;;;;4956625;28;20034;-86
2023/07/26 10:57:18;;;;;;;1.70;1.25;;;26.50;55.40;;;;;;4958076;28;20034;-86
2023/07/26 10:59:57;;;;;;;2.63;1.20;;;26.50;56.20;;;;;;4956035;29;20027;-86
2023/07/26 11:02:35;;;;;;;3.22;1.50;;;26.60;56.00;;;;;;4956663;28;20027;-86
2023/07/26 11:05:03;;;;;;;1.95;1.33;;;26.70;54.50;;;;;;4955555;29;20034;-86
2023/07/26 11:08:00;;;;;;;3.40;1.60;;;26.70;55.40;;;;;;4958374;29;20027;-85
2023/07/26 11:10:30;;;;;;;3.65;1.67;;;26.90;54.30;;;;;;4953666;29;20039;-85
2023/07/26 11:13:12;;;;;;;3.25;1.38;;;27.00;56.60;;;;;;4936721;29;20090;-87
2023/07/26 11:15:44;;;;;;;3.03;1.20;;;27.20;56.80;;;;;;4934361;29;20082;-87
2023/07/26 11:18:13;;;;;;;1.67;1.45;;;27.30;55.10;;;;;;4935545;29;20039;-85
2023/07/26 11:20:50;;;;;;;2.33;1.65;;;27.40;55.90;;;;;;4934224;29;20042;-87
2023/07/26 11:23:23;;;;;;;;;;;27.40;53.80;;;;;;4935499;29;20023;-87
2023/07/26 11:25:51;;;;;;;1.45;1.35;;;27.40;55.50;;;;;;4934305;29;19930;-90
2023/07/26 11:28:19;;;;;;;2.33;1.30;;;27.50;55.40;;;;;;4934052;29;20035;-87
2023/07/26 11:30:50;;;;;;;4.43;3.95;;;27.60;56.00;;;;;;4938916;29;20038;-88
2023/07/26 11:33:32;;;;;;;1.98;1.73;;;27.80;54.90;;;;;;4948903;29;20152;-86
2023/07/26 11:36:00;;;;;;;2.65;1.38;;;27.90;51.90;;;;;;4942624;29;20019;-86
2023/07/26 11:38:26;;;;;;;2.70;1.17;;;27.80;53.50;;;;;;4955006;29;20071;-85
2023/07/26 11:40:58;;;;;;;1.25;0.95;;;27.90;52.60;;;;;;4951837;29;20039;-84
2023/07/26 11:43:25;;;;;;;1.73;1.20;;;28.00;52.40;;;;;;4954819;29;20035;-84
2023/07/26 11:45:52;;;;;;;2.05;1.45;;;28.00;51.50;;;;;;4952597;29;20020;-83
2023/07/26 11:48:18;;;;;;;2.15;1.30;;;28.10;50.70;;;;;;4941486;29;20032;-84
2023/07/26 11:50:44;;;;;;;3.33;1.15;;;28.20;51.00;;;;;;4952394;29;20034;-84
2023/07/26 11:53:12;;;;;;;1.48;1.08;;;28.30;50.30;;;;;;4953098;29;20054;-83
2023/07/26 11:55:40;;;;;;;2.80;1.10;;;28.40;49.70;;;;;;4955975;29;20039;-84
2023/07/26 11:58:08;;;;;;;4.78;1.35;;;28.60;50.70;;;;;;4957515;28;20064;-84
2023/07/26 12:00:44;;;;;;;1.17;1.02;;;28.70;50.40;;;;;;4943945;29;20023;-84
2023/07/26 12:03:10;;;;;;;3.20;1.23;;;28.90;50.50;;;;;;4961895;28;20042;-84
2023/07/26 12:05:42;;;;;;;2.08;1.30;;;29.00;50.60;;;;;;4960496;29;20475;-84
2023/07/26 12:08:08;;;;;;;2.20;1.33;;;29.10;48.90;;;;;;4960099;29;20498;-84
2023/07/26 12:10:41;;;;;;;1.35;1.10;;;29.20;48.60;;;;;;4960437;29;20039;-84
2023/07/26 12:13:23;;;;;;;1.75;1.05;;;29.10;47.80;;;;;;4962518;28;20035;-84
2023/07/26 12:15:53;;;;;;;1.52;1.15;;;29.00;48.40;;;;;;4960105;29;20027;-84
2023/07/26 12:18:23;;;;;;;1.67;1.00;;;28.90;49.80;;;;;;4960145;29;20462;-84
2023/07/26 12:20:59;;;;;;;3.30;1.40;;;29.00;48.60;;;;;;4958684;29;20031;-84
2023/07/26 12:23:26;;;;;;;1.63;1.20;;;29.10;51.30;;;;;;4960105;28;20483;-84
2023/07/26 12:25:56;;;;;;;2.42;1.00;;;29.10;48.70;;;;;;4960747;28;20023;-84
2023/07/26 12:28:26;;;;;;;2.80;1.08;;;29.10;48.60;;;;;;4955355;29;20038;-84
2023/07/26 12:30:53;;;;;;;1.75;1.23;;;29.20;48.60;;;;;;4948227;29;20043;-84
2023/07/26 12:33:19;;;;;;;1.30;1.20;;;29.30;47.90;;;;;;4941005;29;20027;-84
2023/07/26 12:35:45;;;;;;;1.10;1.00;;;29.30;46.50;;;;;;4955550;29;20039;-84
2023/07/26 12:38:12;;;;;;;1.27;1.00;;;29.20;45.40;;;;;;4940724;29;20027;-85
2023/07/26 12:40:39;;;;;;;0.90;0.80;;;29.20;45.90;;;;;;4928977;29;20040;-84
2023/07/26 12:43:20;;;;;;;3.08;1.17;;;29.40;45.90;;;;;;4968888;28;20043;-84
2023/07/26 12:45:46;;;;;;;2.92;1.02;;;29.50;44.20;;;;;;4959476;28;20114;-84
2023/07/26 12:48:12;;;;;;;1.43;1.20;;;29.60;46.90;;;;;;4957617;29;20117;-84
2023/07/26 12:50:41;;;;;;;2.03;1.20;;;29.90;45.90;;;;;;4958287;28;20023;-85
2023/07/26 12:53:08;;;;;;;1.38;1.17;;;29.80;45.50;;;;;;4958272;28;20027;-84
2023/07/26 12:55:34;;;;;;;;;;;30.00;45.20;;;;;;4958302;28;20027;-84
2023/07/26 12:58:00;;;;;;;1.80;1.00;;;30.20;46.30;;;;;;4957551;29;19921;-84
2023/07/26 13:00:26;;;;;;;1.73;1.52;;;30.30;46.30;;;;;;4958002;29;20098;-84
2023/07/26 13:02:51;;;;;;;1.25;1.15;;;30.50;45.00;;;;;;4954318;29;20417;-84
2023/07/26 13:05:20;;;;;;;2.40;1.20;;;30.70;45.30;;;;;;4953659;29;20481;-85
2023/07/26 13:07:53;;;;;;;1.25;0.98;;;30.90;44.50;;;;;;4956655;28;20271;-84
2023/07/26 13:10:20;;;;;;;1.42;1.00;;;31.10;44.80;;;;;;4956803;29;20461;-84
2023/07/26 13:12:46;;;;;;;1.85;1.40;;;31.10;43.50;;;;;;4958549;28;20035;-84
2023/07/26 13:15:12;;;;;;;0.93;0.80;;;30.90;44.30;;;;;;4958036;29;20031;-84
2023/07/26 13:17:38;;;;;;;2.00;1.27;;;30.70;45.70;;;;;;4956907;29;20034;-84
2023/07/26 13:20:05;;;;;;;1.67;1.55;;;30.40;44.60;;;;;;4957220;29;20027;-84
2023/07/26 13:22:31;;;;;;;1.30;1.20;;;31.00;45.30;;;;;;4954035;29;20028;-84
2023/07/26 13:24:58;;;;;;;6.38;1.67;;;32.40;44.90;;;;;;4937614;29;20031;-86
2023/07/26 13:27:24;;;;;;;4.53;1.30;;;34.00;41.40;;;;;;4936796;29;20032;-85
2023/07/26 13:29:50;;;;;;;1.88;1.10;;;35.10;40.20;;;;;;4936127;29;20042;-88
2023/07/26 13:32:16;;;;;;;4.88;1.23;;;35.70;39.40;;;;;;4937711;29;20468;-85
2023/07/26 13:34:42;;;;;;;5.78;1.17;;;35.20;38.80;;;;;;4951653;29;20036;-85
2023/07/26 13:37:08;;;;;;;1.35;0.80;;;34.60;40.60;;;;;;4935710;29;20131;-85
2023/07/26 13:39:34;;;;;;;11.05;9.70;;;34.00;41.40;;;;;;4936841;29;20028;-90
2023/07/26 13:42:00;;;;;;;3.35;2.78;;;34.10;41.80;;;;;;4938430;29;20466;-89
2023/07/26 13:44:26;;;;;;;738.88;454.05;;;35.00;39.80;;;;;;4935751;29;20034;-88
2023/07/26 13:46:53;;;;;;;342.25;246.25;;;36.00;37.70;;;;;;4947096;29;20040;-89
2023/07/26 13:49:19;;;;;;;;;;;36.50;36.10;;;;;;4936048;29;20036;-90
2023/07/26 13:51:45;;;;;;;4.38;2.08;;;37.10;38.40;;;;;;4935936;29;19906;-88
2023/07/26 13:54:12;;;;;;;2.22;1.45;;;37.90;35.10;;;;;;4935465;29;20094;-88
2023/07/26 13:56:38;;;;;;;1.77;1.50;;;38.70;34.10;;;;;;4919479;29;20035;-86
2023/07/26 13:59:04;;;;;;;1.75;1.52;;;38.80;34.30;;;;;;4935608;29;20028;-87
2023/07/26 14:01:31;;;;;;;;;;;39.30;34.90;;;;;;4918752;29;20034;-86
2023/07/26 14:03:57;;;;;;;2.10;1.90;;;39.30;34.40;;;;;;4944294;29;19911;-82
2023/07/26 14:06:25;;;;;;;3.33;1.88;;;39.50;33.20;;;;;;4952984;29;20574;-83
2023/07/26 14:08:51;;;;;;;2.08;1.75;;;40.50;32.60;;;;;;4936275;29;20099;-83
2023/07/26 14:11:17;;;;;;;2.60;1.40;;;41.20;32.60;;;;;;4931383;29;20031;-82
2023/07/26 14:13:43;;;;;;;1.95;1.70;;;41.90;31.50;;;;;;4950903;29;20031;-83
2023/07/26 14:16:09;;;;;;;3.05;1.63;;;42.50;30.50;;;;;;4945896;29;20038;-83
2023/07/26 14:18:35;;;;;;;9.18;2.08;;;42.60;30.00;;;;;;4935593;29;20083;-83
2023/07/26 14:21:01;;;;;;;4.20;1.33;;;41.60;28.40;;;;;;4933035;29;20030;-83
2023/07/26 14:23:31;;;;;;;1.40;1.30;;;41.60;28.90;;;;;;4946802;29;20019;-83
2023/07/26 14:25:57;;;;;;;2.78;1.50;;;42.30;29.10;;;;;;4955069;28;20421;-82
2023/07/26 14:28:23;;;;;;;2.03;1.35;;;42.50;29.50;;;;;;4954685;29;20126;-83
2023/07/26 14:30:49;;;;;;;1.77;1.67;;;42.30;28.50;;;;;;4953584;29;20035;-83
2023/07/26 14:33:16;;;;;;;1.70;1.25;;;41.30;27.40;;;;;;4953639;29;20038;-85
2023/07/26 14:35:41;;;;;;;1.40;1.30;;;41.30;28.20;;;;;;4953891;29;20038;-83
2023/07/26 14:38:07;;;;;;;2.05;1.77;;;41.90;27.70;;;;;;4950258;29;20027;-82
2023/07/26 14:40:33;;;;;;;2.00;1.48;;;41.90;27.40;;;;;;4933540;29;20118;-83
2023/07/26 14:43:00;;;;;;;2.03;1.48;;;42.30;28.30;;;;;;4945699;29;20114;-83
2023/07/26 14:45:26;;;;;;;1.63;1.52;;;42.80;28.30;;;;;;4951732;29;20034;-83
2023/07/26 14:47:52;;;;;;;1.45;1.35;;;43.20;27.90;;;;;;4952405;28;20023;-83
2023/07/26 14:50:18;;;;;;;1.83;1.30;;;41.50;27.10;;;;;;4950801;29;20104;-83
2023/07/26 14:52:44;;;;;;;1.95;1.33;;;41.60;26.90;;;;;;4948276;29;20054;-83
2023/07/26 14:55:10;;;;;;;2.40;1.67;;;41.30;26.50;;;;;;4932872;29;20028;-83
2023/07/26 14:57:37;;;;;;;1.50;1.40;;;41.80;27.40;;;;;;4945509;29;20489;-83
2023/07/26 15:00:04;;;;;;;7.75;4.90;;;42.60;28.00;;;;;;4933987;29;20058;-87
2023/07/26 15:02:31;;;;;;;1.80;1.70;;;42.10;26.40;;;;;;4941163;29;20032;-84
2023/07/26 15:04:57;;;;;;;3.78;1.60;;;40.20;26.20;;;;;;4955558;29;20027;-84
2023/07/26 15:07:23;;;;;;;1.60;1.50;;;39.30;27.10;;;;;;4953754;28;20425;-84
2023/07/26 15:09:50;;;;;;;2.58;1.17;;;39.40;28.20;;;;;;4953382;29;20447;-83
2023/07/26 15:12:16;;;;;;;0.77;0.75;;;39.10;27.40;;;;;;4953802;29;20118;-85
2023/07/26 15:14:42;;;;;;;2.58;0.90;;;38.30;29.30;;;;;;4954279;28;20027;-84
2023/07/26 15:17:08;;;;;;;1.60;0.93;;;36.90;28.20;;;;;;4952904;29;20063;-84
2023/07/26 15:19:35;;;;;;;3.42;0.80;;;35.00;27.50;;;;;;4952919;29;20467;-84
2023/07/26 15:22:00;;;;;;;;;;;34.50;30.20;;;;;;4937525;29;20032;-84
2023/07/26 15:24:26;;;;;;;2.38;1.10;;;33.90;29.50;;;;;;4954239;29;19910;-85
2023/07/26 15:26:52;;;;;;;2.67;1.10;;;33.20;30.40;;;;;;4952695;29;20047;-82
2023/07/26 15:29:18;;;;;;;0.77;0.77;;;33.10;31.10;;;;;;4952854;29;20039;-83
2023/07/26 15:31:44;;;;;;;1.33;0.80;;;33.10;30.40;;;;;;4952144;28;20522;-83
2023/07/26 15:34:10;;;;;;;1.17;0.95;;;33.00;30.00;;;;;;4935894;29;20031;-84
2023/07/26 15:36:36;;;;;;;4.50;2.15;;;32.80;32.10;;;;;;4949252;29;20458;-83
2023/07/26 15:39:03;;;;;;;4.93;4.43;;;32.60;31.90;;;;;;4924462;29;20032;-84
2023/07/26 15:41:29;;;;;;;1.98;1.50;;;32.40;31.50;;;;;;4958772;28;20031;-83
2023/07/26 15:43:55;;;;;;;1.35;1.15;;;32.40;32.40;;;;;;4952892;29;20038;-83
2023/07/26 15:46:21;;;;;;;3.95;1.08;;;32.60;34.70;;;;;;4949318;29;20031;-83
2023/07/26 15:48:48;;;;;;;0.77;0.75;;;32.10;31.80;;;;;;4943847;29;20031;-83
2023/07/26 15:51:14;;;;;;;0.80;0.77;;;32.00;29.80;;;;;;4952191;29;20417;-83